sensor_id;sensor_type;location;lat;lon;timestamp;P1;durP1;ratioP1;P2;durP2;ratioP2
51862;SDS011;37900;52.996;6.278;2022-08-19T00:00:19;2.03;;;1.67;;
51862;SDS011;37900;52.996;6.278;2022-08-19T00:02:45;2.70;;;1.80;;
51862;SDS011;37900;52.996;6.278;2022-08-19T00:05:12;2.00;;;1.80;;
51862;SDS011;37900;52.996;6.278;2022-08-19T00:07:38;1.70;;;1.40;;
51862;SDS011;37900;52.996;6.278;2022-08-19T00:10:06;2.70;;;2.03;;
51862;SDS011;37900;52.996;6.278;2022-08-19T00:12:33;2.00;;;1.65;;
51862;SDS011;37900;52.996;6.278;2022-08-19T00:14:59;2.10;;;1.70;;
51862;SDS011;37900;52.996;6.278;2022-08-19T00:17:25;2.90;;;2.00;;
51862;SDS011;37900;52.996;6.278;2022-08-19T00:19:50;1.80;;;1.70;;
51862;SDS011;37900;52.996;6.278;2022-08-19T00:22:16;1.70;;;1.60;;
51862;SDS011;37900;52.996;6.278;2022-08-19T00:24:43;2.03;;;1.80;;
51862;SDS011;37900;52.996;6.278;2022-08-19T00:27:10;2.10;;;1.80;;
51862;SDS011;37900;52.996;6.278;2022-08-19T00:29:37;2.38;;;1.83;;
51862;SDS011;37900;52.996;6.278;2022-08-19T00:32:03;2.00;;;1.80;;
51862;SDS011;37900;52.996;6.278;2022-08-19T00:34:29;1.70;;;1.60;;
51862;SDS011;37900;52.996;6.278;2022-08-19T00:36:55;2.15;;;1.52;;
51862;SDS011;37900;52.996;6.278;2022-08-19T00:39:21;2.25;;;1.73;;
51862;SDS011;37900;52.996;6.278;2022-08-19T00:41:47;2.33;;;1.90;;
51862;SDS011;37900;52.996;6.278;2022-08-19T00:46:45;1.70;;;1.60;;
51862;SDS011;37900;52.996;6.278;2022-08-19T00:49:16;2.20;;;2.00;;
51862;SDS011;37900;52.996;6.278;2022-08-19T00:52:06;2.00;;;1.80;;
51862;SDS011;37900;52.996;6.278;2022-08-19T00:54:37;1.73;;;1.63;;
51862;SDS011;37900;52.996;6.278;2022-08-19T00:59:31;2.10;;;1.63;;
51862;SDS011;37900;52.996;6.278;2022-08-19T01:02:00;2.20;;;1.63;;
51862;SDS011;37900;52.996;6.278;2022-08-19T01:04:26;1.80;;;1.70;;
51862;SDS011;37900;52.996;6.278;2022-08-19T01:06:52;2.15;;;1.75;;
51862;SDS011;37900;52.996;6.278;2022-08-19T01:09:18;2.00;;;1.80;;
51862;SDS011;37900;52.996;6.278;2022-08-19T01:11:44;1.95;;;1.85;;
51862;SDS011;37900;52.996;6.278;2022-08-19T01:14:10;1.63;;;1.50;;
51862;SDS011;37900;52.996;6.278;2022-08-19T01:16:38;2.10;;;1.85;;
51862;SDS011;37900;52.996;6.278;2022-08-19T01:19:10;2.10;;;1.90;;
51862;SDS011;37900;52.996;6.278;2022-08-19T01:21:52;1.88;;;1.67;;
51862;SDS011;37900;52.996;6.278;2022-08-19T01:24:23;2.08;;;1.88;;
51862;SDS011;37900;52.996;6.278;2022-08-19T01:26:49;2.13;;;1.80;;
51862;SDS011;37900;52.996;6.278;2022-08-19T01:29:15;1.70;;;1.60;;
51862;SDS011;37900;52.996;6.278;2022-08-19T01:31:40;1.70;;;1.60;;
51862;SDS011;37900;52.996;6.278;2022-08-19T01:34:06;2.25;;;1.80;;
51862;SDS011;37900;52.996;6.278;2022-08-19T01:36:36;2.00;;;1.77;;
51862;SDS011;37900;52.996;6.278;2022-08-19T01:39:09;1.90;;;1.70;;
51862;SDS011;37900;52.996;6.278;2022-08-19T01:41:37;1.98;;;1.70;;
51862;SDS011;37900;52.996;6.278;2022-08-19T01:44:03;2.47;;;1.60;;
51862;SDS011;37900;52.996;6.278;2022-08-19T01:48:56;1.92;;;1.80;;
51862;SDS011;37900;52.996;6.278;2022-08-19T01:51:22;2.50;;;1.55;;
51862;SDS011;37900;52.996;6.278;2022-08-19T01:53:48;2.03;;;1.83;;
51862;SDS011;37900;52.996;6.278;2022-08-19T01:58:41;2.10;;;1.50;;
51862;SDS011;37900;52.996;6.278;2022-08-19T02:01:13;2.25;;;1.80;;
51862;SDS011;37900;52.996;6.278;2022-08-19T02:03:39;3.05;;;1.90;;
51862;SDS011;37900;52.996;6.278;2022-08-19T02:06:05;2.22;;;1.75;;
51862;SDS011;37900;52.996;6.278;2022-08-19T02:08:31;2.08;;;1.60;;
51862;SDS011;37900;52.996;6.278;2022-08-19T02:10:59;1.80;;;1.70;;
51862;SDS011;37900;52.996;6.278;2022-08-19T02:13:25;2.13;;;1.83;;
51862;SDS011;37900;52.996;6.278;2022-08-19T02:15:51;2.95;;;2.03;;
51862;SDS011;37900;52.996;6.278;2022-08-19T02:18:17;1.88;;;1.63;;
51862;SDS011;37900;52.996;6.278;2022-08-19T02:20:44;1.88;;;1.70;;
51862;SDS011;37900;52.996;6.278;2022-08-19T02:23:10;2.08;;;1.80;;
51862;SDS011;37900;52.996;6.278;2022-08-19T02:25:37;2.03;;;1.80;;
51862;SDS011;37900;52.996;6.278;2022-08-19T02:28:04;2.20;;;2.00;;
51862;SDS011;37900;52.996;6.278;2022-08-19T02:30:30;2.20;;;1.70;;
51862;SDS011;37900;52.996;6.278;2022-08-19T02:32:56;1.85;;;1.65;;
51862;SDS011;37900;52.996;6.278;2022-08-19T02:35:21;2.53;;;1.70;;
51862;SDS011;37900;52.996;6.278;2022-08-19T02:37:47;1.95;;;1.73;;
51862;SDS011;37900;52.996;6.278;2022-08-19T02:40:32;1.98;;;1.70;;
51862;SDS011;37900;52.996;6.278;2022-08-19T02:42:59;2.35;;;1.85;;
51862;SDS011;37900;52.996;6.278;2022-08-19T02:45:26;1.67;;;1.52;;
51862;SDS011;37900;52.996;6.278;2022-08-19T02:47:52;1.80;;;1.70;;
51862;SDS011;37900;52.996;6.278;2022-08-19T02:50:18;2.47;;;1.90;;
51862;SDS011;37900;52.996;6.278;2022-08-19T02:52:43;1.98;;;1.73;;
51862;SDS011;37900;52.996;6.278;2022-08-19T02:55:10;2.05;;;1.80;;
51862;SDS011;37900;52.996;6.278;2022-08-19T02:57:36;2.45;;;1.80;;
51862;SDS011;37900;52.996;6.278;2022-08-19T03:00:04;1.73;;;1.63;;
51862;SDS011;37900;52.996;6.278;2022-08-19T03:02:32;1.65;;;1.55;;
51862;SDS011;37900;52.996;6.278;2022-08-19T03:04:57;1.92;;;1.70;;
51862;SDS011;37900;52.996;6.278;2022-08-19T03:07:23;2.13;;;1.60;;
51862;SDS011;37900;52.996;6.278;2022-08-19T03:09:49;2.53;;;1.80;;
51862;SDS011;37900;52.996;6.278;2022-08-19T03:12:14;1.85;;;1.65;;
51862;SDS011;37900;52.996;6.278;2022-08-19T03:14:40;2.30;;;1.60;;
51862;SDS011;37900;52.996;6.278;2022-08-19T03:17:06;2.00;;;1.80;;
51862;SDS011;37900;52.996;6.278;2022-08-19T03:19:33;2.03;;;1.77;;
51862;SDS011;37900;52.996;6.278;2022-08-19T03:21:58;2.10;;;1.90;;
51862;SDS011;37900;52.996;6.278;2022-08-19T03:24:24;1.70;;;1.60;;
51862;SDS011;37900;52.996;6.278;2022-08-19T03:26:51;1.65;;;1.55;;
51862;SDS011;37900;52.996;6.278;2022-08-19T03:29:22;2.00;;;1.60;;
51862;SDS011;37900;52.996;6.278;2022-08-19T03:31:48;1.77;;;1.67;;
51862;SDS011;37900;52.996;6.278;2022-08-19T03:36:43;2.10;;;1.88;;
51862;SDS011;37900;52.996;6.278;2022-08-19T03:39:10;1.40;;;1.30;;
51862;SDS011;37900;52.996;6.278;2022-08-19T03:41:36;1.83;;;1.73;;
51862;SDS011;37900;52.996;6.278;2022-08-19T03:44:04;1.70;;;1.55;;
51862;SDS011;37900;52.996;6.278;2022-08-19T03:46:31;2.03;;;1.75;;
51862;SDS011;37900;52.996;6.278;2022-08-19T03:48:58;1.90;;;1.70;;
51862;SDS011;37900;52.996;6.278;2022-08-19T03:51:26;1.73;;;1.60;;
51862;SDS011;37900;52.996;6.278;2022-08-19T03:53:58;2.22;;;1.88;;
51862;SDS011;37900;52.996;6.278;2022-08-19T03:56:25;2.70;;;1.52;;
51862;SDS011;37900;52.996;6.278;2022-08-19T03:58:53;1.73;;;1.63;;
51862;SDS011;37900;52.996;6.278;2022-08-19T04:01:21;2.28;;;1.98;;
51862;SDS011;37900;52.996;6.278;2022-08-19T04:03:48;1.95;;;1.70;;
51862;SDS011;37900;52.996;6.278;2022-08-19T04:06:15;1.93;;;1.80;;
51862;SDS011;37900;52.996;6.278;2022-08-19T04:08:44;1.60;;;1.50;;
51862;SDS011;37900;52.996;6.278;2022-08-19T04:11:11;1.60;;;1.50;;
51862;SDS011;37900;52.996;6.278;2022-08-19T04:13:39;1.80;;;1.70;;
51862;SDS011;37900;52.996;6.278;2022-08-19T04:16:05;1.80;;;1.70;;
51862;SDS011;37900;52.996;6.278;2022-08-19T04:18:32;2.10;;;1.75;;
51862;SDS011;37900;52.996;6.278;2022-08-19T04:23:24;1.98;;;1.75;;
51862;SDS011;37900;52.996;6.278;2022-08-19T04:25:50;1.67;;;1.55;;
51862;SDS011;37900;52.996;6.278;2022-08-19T04:28:16;2.22;;;2.03;;
51862;SDS011;37900;52.996;6.278;2022-08-19T04:30:47;2.15;;;1.83;;
51862;SDS011;37900;52.996;6.278;2022-08-19T04:33:16;1.98;;;1.73;;
51862;SDS011;37900;52.996;6.278;2022-08-19T04:35:44;1.85;;;1.70;;
51862;SDS011;37900;52.996;6.278;2022-08-19T04:38:12;1.95;;;1.80;;
51862;SDS011;37900;52.996;6.278;2022-08-19T04:40:42;2.30;;;1.75;;
51862;SDS011;37900;52.996;6.278;2022-08-19T04:43:28;1.77;;;1.63;;
51862;SDS011;37900;52.996;6.278;2022-08-19T04:45:54;1.83;;;1.70;;
51862;SDS011;37900;52.996;6.278;2022-08-19T04:48:20;2.35;;;1.88;;
51862;SDS011;37900;52.996;6.278;2022-08-19T04:50:51;2.08;;;1.80;;
51862;SDS011;37900;52.996;6.278;2022-08-19T04:53:28;2.90;;;1.67;;
51862;SDS011;37900;52.996;6.278;2022-08-19T04:55:55;2.28;;;2.03;;
51862;SDS011;37900;52.996;6.278;2022-08-19T04:58:22;2.42;;;2.00;;
51862;SDS011;37900;52.996;6.278;2022-08-19T05:00:49;2.45;;;2.00;;
51862;SDS011;37900;52.996;6.278;2022-08-19T05:03:15;2.10;;;1.90;;
51862;SDS011;37900;52.996;6.278;2022-08-19T05:05:42;2.77;;;2.07;;
51862;SDS011;37900;52.996;6.278;2022-08-19T05:08:09;2.20;;;2.00;;
51862;SDS011;37900;52.996;6.278;2022-08-19T05:10:36;2.33;;;1.88;;
51862;SDS011;37900;52.996;6.278;2022-08-19T05:13:03;2.13;;;1.80;;
51862;SDS011;37900;52.996;6.278;2022-08-19T05:15:29;1.50;;;1.40;;
51862;SDS011;37900;52.996;6.278;2022-08-19T05:17:56;1.85;;;1.65;;
51862;SDS011;37900;52.996;6.278;2022-08-19T05:20:40;2.00;;;1.80;;
51862;SDS011;37900;52.996;6.278;2022-08-19T05:23:25;1.92;;;1.80;;
51862;SDS011;37900;52.996;6.278;2022-08-19T05:25:51;2.00;;;1.80;;
51862;SDS011;37900;52.996;6.278;2022-08-19T05:28:18;2.22;;;1.83;;
51862;SDS011;37900;52.996;6.278;2022-08-19T05:30:45;1.52;;;1.42;;
51862;SDS011;37900;52.996;6.278;2022-08-19T05:33:13;2.00;;;1.80;;
51862;SDS011;37900;52.996;6.278;2022-08-19T05:35:39;2.67;;;1.88;;
51862;SDS011;37900;52.996;6.278;2022-08-19T05:38:06;1.90;;;1.70;;
51862;SDS011;37900;52.996;6.278;2022-08-19T05:43:01;1.70;;;1.60;;
51862;SDS011;37900;52.996;6.278;2022-08-19T05:45:29;1.92;;;1.73;;
51862;SDS011;37900;52.996;6.278;2022-08-19T05:47:54;2.10;;;1.70;;
51862;SDS011;37900;52.996;6.278;2022-08-19T05:50:20;2.10;;;1.90;;
51862;SDS011;37900;52.996;6.278;2022-08-19T05:52:46;2.42;;;2.03;;
51862;SDS011;37900;52.996;6.278;2022-08-19T05:55:12;2.30;;;2.10;;
51862;SDS011;37900;52.996;6.278;2022-08-19T05:57:38;2.30;;;2.08;;
51862;SDS011;37900;52.996;6.278;2022-08-19T06:00:04;3.42;;;2.65;;
51862;SDS011;37900;52.996;6.278;2022-08-19T06:02:34;2.10;;;1.88;;
51862;SDS011;37900;52.996;6.278;2022-08-19T06:05:00;2.88;;;2.40;;
51862;SDS011;37900;52.996;6.278;2022-08-19T06:07:27;2.67;;;2.42;;
51862;SDS011;37900;52.996;6.278;2022-08-19T06:09:54;2.83;;;2.63;;
51862;SDS011;37900;52.996;6.278;2022-08-19T06:12:20;3.27;;;2.70;;
51862;SDS011;37900;52.996;6.278;2022-08-19T06:14:55;3.00;;;2.67;;
51862;SDS011;37900;52.996;6.278;2022-08-19T06:17:21;2.83;;;2.53;;
51862;SDS011;37900;52.996;6.278;2022-08-19T06:19:49;4.55;;;3.03;;
51862;SDS011;37900;52.996;6.278;2022-08-19T06:22:15;3.78;;;2.50;;
51862;SDS011;37900;52.996;6.278;2022-08-19T06:24:41;2.90;;;2.58;;
51862;SDS011;37900;52.996;6.278;2022-08-19T06:27:07;3.38;;;2.92;;
51862;SDS011;37900;52.996;6.278;2022-08-19T06:29:34;3.20;;;2.90;;
51862;SDS011;37900;52.996;6.278;2022-08-19T06:32:00;3.40;;;2.63;;
51862;SDS011;37900;52.996;6.278;2022-08-19T06:34:29;4.60;;;3.17;;
51862;SDS011;37900;52.996;6.278;2022-08-19T06:36:57;4.25;;;3.28;;
51862;SDS011;37900;52.996;6.278;2022-08-19T06:39:27;4.10;;;2.90;;
51862;SDS011;37900;52.996;6.278;2022-08-19T06:41:56;2.70;;;2.47;;
51862;SDS011;37900;52.996;6.278;2022-08-19T06:44:24;3.90;;;3.15;;
51862;SDS011;37900;52.996;6.278;2022-08-19T06:46:52;3.90;;;3.10;;
51862;SDS011;37900;52.996;6.278;2022-08-19T06:49:19;3.05;;;2.75;;
51862;SDS011;37900;52.996;6.278;2022-08-19T06:51:45;3.85;;;3.00;;
51862;SDS011;37900;52.996;6.278;2022-08-19T06:54:13;3.80;;;3.13;;
51862;SDS011;37900;52.996;6.278;2022-08-19T06:56:39;3.22;;;2.92;;
51862;SDS011;37900;52.996;6.278;2022-08-19T06:59:10;3.30;;;2.90;;
51862;SDS011;37900;52.996;6.278;2022-08-19T07:01:42;3.38;;;2.95;;
51862;SDS011;37900;52.996;6.278;2022-08-19T07:04:11;4.13;;;3.58;;
51862;SDS011;37900;52.996;6.278;2022-08-19T07:06:38;4.65;;;3.45;;
51862;SDS011;37900;52.996;6.278;2022-08-19T07:09:04;3.83;;;3.42;;
51862;SDS011;37900;52.996;6.278;2022-08-19T07:11:32;4.20;;;3.30;;
51862;SDS011;37900;52.996;6.278;2022-08-19T07:13:58;3.72;;;3.22;;
51862;SDS011;37900;52.996;6.278;2022-08-19T07:18:52;2.97;;;2.50;;
51862;SDS011;37900;52.996;6.278;2022-08-19T07:21:19;3.38;;;3.08;;
51862;SDS011;37900;52.996;6.278;2022-08-19T07:23:49;3.47;;;2.97;;
51862;SDS011;37900;52.996;6.278;2022-08-19T07:26:27;4.20;;;3.80;;
51862;SDS011;37900;52.996;6.278;2022-08-19T07:28:55;3.63;;;3.25;;
51862;SDS011;37900;52.996;6.278;2022-08-19T07:31:23;3.45;;;3.13;;
51862;SDS011;37900;52.996;6.278;2022-08-19T07:33:50;4.05;;;3.30;;
51862;SDS011;37900;52.996;6.278;2022-08-19T07:36:18;4.20;;;3.70;;
51862;SDS011;37900;52.996;6.278;2022-08-19T07:38:47;3.67;;;3.30;;
51862;SDS011;37900;52.996;6.278;2022-08-19T07:41:19;3.72;;;3.38;;
51862;SDS011;37900;52.996;6.278;2022-08-19T07:43:47;4.10;;;3.72;;
51862;SDS011;37900;52.996;6.278;2022-08-19T07:46:14;3.88;;;3.28;;
51862;SDS011;37900;52.996;6.278;2022-08-19T07:48:42;4.25;;;3.50;;
51862;SDS011;37900;52.996;6.278;2022-08-19T07:51:12;5.20;;;3.88;;
51862;SDS011;37900;52.996;6.278;2022-08-19T07:53:39;4.32;;;3.92;;
51862;SDS011;37900;52.996;6.278;2022-08-19T07:56:05;4.43;;;3.90;;
51862;SDS011;37900;52.996;6.278;2022-08-19T07:58:32;4.03;;;3.60;;
51862;SDS011;37900;52.996;6.278;2022-08-19T08:01:02;4.97;;;4.32;;
51862;SDS011;37900;52.996;6.278;2022-08-19T08:03:29;4.05;;;3.53;;
51862;SDS011;37900;52.996;6.278;2022-08-19T08:06:14;3.63;;;3.30;;
51862;SDS011;37900;52.996;6.278;2022-08-19T08:09:03;4.07;;;3.60;;
51862;SDS011;37900;52.996;6.278;2022-08-19T08:11:36;3.78;;;3.30;;
51862;SDS011;37900;52.996;6.278;2022-08-19T08:14:08;3.70;;;3.28;;
51862;SDS011;37900;52.996;6.278;2022-08-19T08:16:37;4.03;;;3.17;;
51862;SDS011;37900;52.996;6.278;2022-08-19T08:19:06;4.43;;;3.03;;
51862;SDS011;37900;52.996;6.278;2022-08-19T08:21:33;3.33;;;3.03;;
51862;SDS011;37900;52.996;6.278;2022-08-19T08:23:59;3.92;;;3.50;;
51862;SDS011;37900;52.996;6.278;2022-08-19T08:26:25;3.58;;;3.20;;
51862;SDS011;37900;52.996;6.278;2022-08-19T08:28:54;3.63;;;3.33;;
51862;SDS011;37900;52.996;6.278;2022-08-19T08:31:20;4.03;;;3.63;;
51862;SDS011;37900;52.996;6.278;2022-08-19T08:33:46;3.80;;;3.40;;
51862;SDS011;37900;52.996;6.278;2022-08-19T08:36:12;4.03;;;3.10;;
51862;SDS011;37900;52.996;6.278;2022-08-19T08:38:42;4.13;;;3.30;;
51862;SDS011;37900;52.996;6.278;2022-08-19T08:43:53;4.72;;;3.40;;
51862;SDS011;37900;52.996;6.278;2022-08-19T08:46:30;4.00;;;3.60;;
51862;SDS011;37900;52.996;6.278;2022-08-19T08:49:14;5.53;;;3.72;;
51862;SDS011;37900;52.996;6.278;2022-08-19T08:51:43;3.92;;;3.53;;
51862;SDS011;37900;52.996;6.278;2022-08-19T08:54:14;4.95;;;3.38;;
51862;SDS011;37900;52.996;6.278;2022-08-19T08:56:44;4.40;;;4.00;;
51862;SDS011;37900;52.996;6.278;2022-08-19T09:01:45;4.35;;;3.95;;
51862;SDS011;37900;52.996;6.278;2022-08-19T09:04:10;3.58;;;3.15;;
51862;SDS011;37900;52.996;6.278;2022-08-19T09:14:53;6.72;;;4.85;;
51862;SDS011;37900;52.996;6.278;2022-08-19T09:17:25;4.82;;;4.07;;
51862;SDS011;37900;52.996;6.278;2022-08-19T09:22:23;4.30;;;3.90;;
51862;SDS011;37900;52.996;6.278;2022-08-19T09:24:49;4.75;;;4.25;;
51862;SDS011;37900;52.996;6.278;2022-08-19T09:27:17;4.00;;;3.60;;
51862;SDS011;37900;52.996;6.278;2022-08-19T09:29:44;4.63;;;3.90;;
51862;SDS011;37900;52.996;6.278;2022-08-19T09:32:10;4.88;;;4.35;;
51862;SDS011;37900;52.996;6.278;2022-08-19T09:34:35;4.35;;;3.95;;
51862;SDS011;37900;52.996;6.278;2022-08-19T09:37:01;4.60;;;4.15;;
51862;SDS011;37900;52.996;6.278;2022-08-19T09:39:28;4.00;;;3.37;;
51862;SDS011;37900;52.996;6.278;2022-08-19T09:41:55;5.55;;;4.00;;
51862;SDS011;37900;52.996;6.278;2022-08-19T09:44:22;4.85;;;4.35;;
51862;SDS011;37900;52.996;6.278;2022-08-19T09:46:48;5.43;;;4.85;;
51862;SDS011;37900;52.996;6.278;2022-08-19T09:49:16;4.72;;;4.15;;
51862;SDS011;37900;52.996;6.278;2022-08-19T09:51:44;5.18;;;4.13;;
51862;SDS011;37900;52.996;6.278;2022-08-19T09:54:10;5.47;;;4.38;;
51862;SDS011;37900;52.996;6.278;2022-08-19T09:56:36;5.38;;;4.65;;
51862;SDS011;37900;52.996;6.278;2022-08-19T09:59:02;5.53;;;4.55;;
51862;SDS011;37900;52.996;6.278;2022-08-19T10:01:29;6.07;;;4.50;;
51862;SDS011;37900;52.996;6.278;2022-08-19T10:03:57;6.25;;;4.78;;
51862;SDS011;37900;52.996;6.278;2022-08-19T10:06:24;5.90;;;5.30;;
51862;SDS011;37900;52.996;6.278;2022-08-19T10:08:54;6.53;;;5.35;;
51862;SDS011;37900;52.996;6.278;2022-08-19T10:11:21;6.72;;;5.40;;
51862;SDS011;37900;52.996;6.278;2022-08-19T10:13:48;5.45;;;4.95;;
51862;SDS011;37900;52.996;6.278;2022-08-19T10:16:16;5.07;;;4.57;;
51862;SDS011;37900;52.996;6.278;2022-08-19T10:18:44;6.60;;;5.68;;
51862;SDS011;37900;52.996;6.278;2022-08-19T10:21:12;5.32;;;4.82;;
51862;SDS011;37900;52.996;6.278;2022-08-19T10:23:40;5.07;;;4.57;;
51862;SDS011;37900;52.996;6.278;2022-08-19T10:26:10;6.00;;;4.32;;
51862;SDS011;37900;52.996;6.278;2022-08-19T10:28:38;5.35;;;4.82;;
51862;SDS011;37900;52.996;6.278;2022-08-19T10:31:05;6.03;;;5.43;;
51862;SDS011;37900;52.996;6.278;2022-08-19T10:33:36;5.85;;;5.25;;
51862;SDS011;37900;52.996;6.278;2022-08-19T10:36:13;5.32;;;4.68;;
51862;SDS011;37900;52.996;6.278;2022-08-19T10:38:40;4.63;;;4.20;;
51862;SDS011;37900;52.996;6.278;2022-08-19T10:41:07;4.97;;;4.05;;
51862;SDS011;37900;52.996;6.278;2022-08-19T10:43:34;5.70;;;4.28;;
51862;SDS011;37900;52.996;6.278;2022-08-19T10:46:03;4.35;;;3.95;;
51862;SDS011;37900;52.996;6.278;2022-08-19T10:48:31;6.32;;;4.80;;
51862;SDS011;37900;52.996;6.278;2022-08-19T10:50:58;5.93;;;4.57;;
51862;SDS011;37900;52.996;6.278;2022-08-19T10:53:42;5.40;;;4.70;;
51862;SDS011;37900;52.996;6.278;2022-08-19T10:56:08;4.65;;;4.25;;
51862;SDS011;37900;52.996;6.278;2022-08-19T10:58:52;7.43;;;5.43;;
51862;SDS011;37900;52.996;6.278;2022-08-19T11:01:18;5.43;;;4.57;;
51862;SDS011;37900;52.996;6.278;2022-08-19T11:03:44;5.65;;;4.28;;
51862;SDS011;37900;52.996;6.278;2022-08-19T11:06:10;5.88;;;5.25;;
51862;SDS011;37900;52.996;6.278;2022-08-19T11:08:36;5.28;;;4.65;;
51862;SDS011;37900;52.996;6.278;2022-08-19T11:11:03;4.40;;;4.00;;
51862;SDS011;37900;52.996;6.278;2022-08-19T11:13:31;5.28;;;4.78;;
51862;SDS011;37900;52.996;6.278;2022-08-19T11:16:03;5.10;;;4.60;;
51862;SDS011;37900;52.996;6.278;2022-08-19T11:18:37;4.75;;;4.18;;
51862;SDS011;37900;52.996;6.278;2022-08-19T11:23:39;5.18;;;4.60;;
51862;SDS011;37900;52.996;6.278;2022-08-19T11:26:06;4.90;;;3.95;;
51862;SDS011;37900;52.996;6.278;2022-08-19T11:28:32;5.93;;;4.68;;
51862;SDS011;37900;52.996;6.278;2022-08-19T11:30:57;5.25;;;4.70;;
51862;SDS011;37900;52.996;6.278;2022-08-19T11:33:23;5.57;;;4.10;;
51862;SDS011;37900;52.996;6.278;2022-08-19T11:35:51;5.30;;;4.40;;
51862;SDS011;37900;52.996;6.278;2022-08-19T11:38:18;6.25;;;4.22;;
51862;SDS011;37900;52.996;6.278;2022-08-19T11:40:43;4.63;;;4.18;;
51862;SDS011;37900;52.996;6.278;2022-08-19T11:43:09;4.80;;;4.40;;
51862;SDS011;37900;52.996;6.278;2022-08-19T11:45:35;4.90;;;4.25;;
51862;SDS011;37900;52.996;6.278;2022-08-19T11:48:01;5.60;;;5.10;;
51862;SDS011;37900;52.996;6.278;2022-08-19T11:50:27;6.10;;;4.75;;
51862;SDS011;37900;52.996;6.278;2022-08-19T11:52:53;4.78;;;4.30;;
51862;SDS011;37900;52.996;6.278;2022-08-19T11:55:21;6.72;;;4.72;;
51862;SDS011;37900;52.996;6.278;2022-08-19T11:57:47;8.23;;;4.45;;
51862;SDS011;37900;52.996;6.278;2022-08-19T12:00:13;5.50;;;5.00;;
51862;SDS011;37900;52.996;6.278;2022-08-19T12:02:39;6.05;;;4.50;;
51862;SDS011;37900;52.996;6.278;2022-08-19T12:05:06;6.00;;;4.40;;
51862;SDS011;37900;52.996;6.278;2022-08-19T12:07:32;6.07;;;5.10;;
51862;SDS011;37900;52.996;6.278;2022-08-19T12:09:59;5.17;;;4.40;;
51862;SDS011;37900;52.996;6.278;2022-08-19T12:12:25;5.45;;;4.80;;
51862;SDS011;37900;52.996;6.278;2022-08-19T12:14:52;4.70;;;4.22;;
51862;SDS011;37900;52.996;6.278;2022-08-19T12:17:25;5.10;;;4.63;;
51862;SDS011;37900;52.996;6.278;2022-08-19T12:19:52;5.70;;;4.85;;
51862;SDS011;37900;52.996;6.278;2022-08-19T12:22:18;6.67;;;5.10;;
51862;SDS011;37900;52.996;6.278;2022-08-19T12:24:45;6.85;;;5.70;;
51862;SDS011;37900;52.996;6.278;2022-08-19T12:27:10;6.25;;;5.55;;
51862;SDS011;37900;52.996;6.278;2022-08-19T12:29:36;6.85;;;5.22;;
51862;SDS011;37900;52.996;6.278;2022-08-19T12:32:02;6.88;;;5.40;;
51862;SDS011;37900;52.996;6.278;2022-08-19T12:34:29;5.90;;;5.20;;
51862;SDS011;37900;52.996;6.278;2022-08-19T12:36:59;5.90;;;5.30;;
51862;SDS011;37900;52.996;6.278;2022-08-19T12:39:27;6.03;;;5.05;;
51862;SDS011;37900;52.996;6.278;2022-08-19T12:41:53;6.45;;;5.80;;
51862;SDS011;37900;52.996;6.278;2022-08-19T12:44:19;6.43;;;5.28;;
51862;SDS011;37900;52.996;6.278;2022-08-19T12:46:45;6.53;;;5.53;;
51862;SDS011;37900;52.996;6.278;2022-08-19T12:51:37;6.40;;;5.80;;
51862;SDS011;37900;52.996;6.278;2022-08-19T12:54:03;6.60;;;5.80;;
51862;SDS011;37900;52.996;6.278;2022-08-19T12:56:29;7.43;;;6.47;;
51862;SDS011;37900;52.996;6.278;2022-08-19T12:58:56;6.57;;;5.85;;
51862;SDS011;37900;52.996;6.278;2022-08-19T13:01:22;6.50;;;5.70;;
51862;SDS011;37900;52.996;6.278;2022-08-19T13:03:47;6.80;;;5.78;;
51862;SDS011;37900;52.996;6.278;2022-08-19T13:06:13;7.15;;;6.28;;
51862;SDS011;37900;52.996;6.278;2022-08-19T13:08:40;7.35;;;6.63;;
51862;SDS011;37900;52.996;6.278;2022-08-19T13:11:14;7.10;;;5.90;;
51862;SDS011;37900;52.996;6.278;2022-08-19T13:13:43;7.88;;;7.07;;
51862;SDS011;37900;52.996;6.278;2022-08-19T13:16:11;7.53;;;6.57;;
51862;SDS011;37900;52.996;6.278;2022-08-19T13:18:38;7.50;;;5.80;;
51862;SDS011;37900;52.996;6.278;2022-08-19T13:21:06;7.93;;;6.65;;
51862;SDS011;37900;52.996;6.278;2022-08-19T13:23:35;7.38;;;6.35;;
51862;SDS011;37900;52.996;6.278;2022-08-19T13:26:02;7.50;;;6.50;;
51862;SDS011;37900;52.996;6.278;2022-08-19T13:28:30;6.53;;;5.90;;
51862;SDS011;37900;52.996;6.278;2022-08-19T13:31:21;6.70;;;5.70;;
51862;SDS011;37900;52.996;6.278;2022-08-19T13:34:06;6.32;;;5.72;;
51862;SDS011;37900;52.996;6.278;2022-08-19T13:36:33;7.43;;;5.88;;
51862;SDS011;37900;52.996;6.278;2022-08-19T13:41:26;7.10;;;5.65;;
51862;SDS011;37900;52.996;6.278;2022-08-19T13:43:52;6.05;;;5.40;;
51862;SDS011;37900;52.996;6.278;2022-08-19T13:46:19;6.97;;;5.80;;
51862;SDS011;37900;52.996;6.278;2022-08-19T13:48:46;6.78;;;5.72;;
51862;SDS011;37900;52.996;6.278;2022-08-19T13:51:13;6.93;;;5.88;;
51862;SDS011;37900;52.996;6.278;2022-08-19T13:53:41;6.85;;;6.00;;
51862;SDS011;37900;52.996;6.278;2022-08-19T13:56:09;6.88;;;6.13;;
51862;SDS011;37900;52.996;6.278;2022-08-19T13:58:36;10.13;;;7.07;;
51862;SDS011;37900;52.996;6.278;2022-08-19T14:01:03;8.20;;;6.68;;
51862;SDS011;37900;52.996;6.278;2022-08-19T14:03:30;8.07;;;6.90;;
51862;SDS011;37900;52.996;6.278;2022-08-19T14:08:22;5.38;;;4.88;;
51862;SDS011;37900;52.996;6.278;2022-08-19T14:10:49;7.53;;;6.67;;
51862;SDS011;37900;52.996;6.278;2022-08-19T14:13:15;6.03;;;5.43;;
51862;SDS011;37900;52.996;6.278;2022-08-19T14:15:44;5.75;;;5.05;;
51862;SDS011;37900;52.996;6.278;2022-08-19T14:18:10;5.88;;;5.18;;
51862;SDS011;37900;52.996;6.278;2022-08-19T14:20:36;5.03;;;4.53;;
51862;SDS011;37900;52.996;6.278;2022-08-19T14:23:02;4.93;;;4.43;;
51862;SDS011;37900;52.996;6.278;2022-08-19T14:25:31;5.25;;;4.65;;
51862;SDS011;37900;52.996;6.278;2022-08-19T14:27:57;5.30;;;4.35;;
51862;SDS011;37900;52.996;6.278;2022-08-19T14:30:34;6.90;;;4.60;;
51862;SDS011;37900;52.996;6.278;2022-08-19T14:33:03;5.05;;;4.55;;
51862;SDS011;37900;52.996;6.278;2022-08-19T14:37:59;5.15;;;4.30;;
51862;SDS011;37900;52.996;6.278;2022-08-19T14:42:57;4.85;;;4.10;;
51862;SDS011;37900;52.996;6.278;2022-08-19T14:45:27;3.75;;;3.35;;
51862;SDS011;37900;52.996;6.278;2022-08-19T14:47:53;4.53;;;3.67;;
51862;SDS011;37900;52.996;6.278;2022-08-19T14:50:19;4.05;;;3.65;;
51862;SDS011;37900;52.996;6.278;2022-08-19T14:52:46;3.70;;;3.40;;
51862;SDS011;37900;52.996;6.278;2022-08-19T14:55:13;4.38;;;3.65;;
51862;SDS011;37900;52.996;6.278;2022-08-19T14:57:42;5.50;;;3.78;;
51862;SDS011;37900;52.996;6.278;2022-08-19T15:00:10;4.70;;;4.10;;
51862;SDS011;37900;52.996;6.278;2022-08-19T15:02:37;6.25;;;4.38;;
51862;SDS011;37900;52.996;6.278;2022-08-19T15:05:04;4.22;;;3.80;;
51862;SDS011;37900;52.996;6.278;2022-08-19T15:07:30;3.92;;;3.53;;
51862;SDS011;37900;52.996;6.278;2022-08-19T15:09:56;5.35;;;4.45;;
51862;SDS011;37900;52.996;6.278;2022-08-19T15:12:23;4.40;;;3.90;;
51862;SDS011;37900;52.996;6.278;2022-08-19T15:14:49;5.72;;;4.20;;
51862;SDS011;37900;52.996;6.278;2022-08-19T15:17:16;5.28;;;4.25;;
51862;SDS011;37900;52.996;6.278;2022-08-19T15:19:42;5.18;;;4.68;;
51862;SDS011;37900;52.996;6.278;2022-08-19T15:22:08;5.22;;;4.72;;
51862;SDS011;37900;52.996;6.278;2022-08-19T15:24:34;5.03;;;4.50;;
51862;SDS011;37900;52.996;6.278;2022-08-19T15:27:01;5.60;;;4.77;;
51862;SDS011;37900;52.996;6.278;2022-08-19T15:29:27;5.72;;;4.57;;
51862;SDS011;37900;52.996;6.278;2022-08-19T15:31:53;5.28;;;4.78;;
51862;SDS011;37900;52.996;6.278;2022-08-19T15:34:22;5.10;;;4.60;;
51862;SDS011;37900;52.996;6.278;2022-08-19T15:39:18;5.43;;;4.85;;
51862;SDS011;37900;52.996;6.278;2022-08-19T15:41:44;5.38;;;4.88;;
51862;SDS011;37900;52.996;6.278;2022-08-19T15:44:14;4.28;;;3.80;;